KIND/IND METAR and TAF weather

Enter ICAO airport designator
Station Type Date Time Source
KIND METAR 2020/04/07 15:54 UTC NOAA

KIND 071554Z 25011KT 10SM FEW030 SCT065 BKN250 22/15 A2986 RMK AO2 SLP105 T02220150


Station Type Date Time Source
KIND Decoded METAR 2020/04/07 15:54 UTC NOAA

INDIANAPOLIS INTERNATIONAL AIRPORT , IN, United States (KIND) 39-43N 86-17W 242M
Apr 07, 2020 - 11:54 AM EDT / 2020.04.07 1554 UTC
Wind: from the WSW (250 degrees) at 13 MPH (11 KT):0
Visibility: 10 mile(s):0
Sky conditions: mostly cloudy
Temperature: 72.0 F (22.2 C)
Dew Point: 59.0 F (15.0 C)
Relative Humidity: 63%
Pressure (altimeter): 29.86 in. Hg (1011 hPa)
ob: KIND 071554Z 25011KT 10SM FEW030 SCT065 BKN250 22/15 A2986 RMK AO2 SLP105 T02220150
cycle: 16

Station Type Date Time Source
KIND TAF 2020/04/07 15:03 UTC NOAA

TAF
AMD KIND 071500Z 0715/0818 23011KT P6SM SCT070 BKN250
FM071900 23013G21KT P6SM SCT070
FM080300 23010KT P6SM VCTS BKN050CB
FM081000 31007KT P6SM BKN028
FM081300 35008KT P6SM SCT026

Example: see airport list